createdAt,value
2018-06-21T00:01:55.500Z,17.30
2018-06-21T00:04:25.303Z,17.20
2018-06-21T00:06:54.088Z,17.20
2018-06-21T00:09:31.300Z,17.20
2018-06-21T00:12:03.295Z,17.10
2018-06-21T00:14:34.168Z,17.10
2018-06-21T00:17:04.040Z,16.90
2018-06-21T00:19:35.975Z,16.90
2018-06-21T00:22:04.876Z,16.90
2018-06-21T00:24:33.799Z,16.90
2018-06-21T00:27:02.700Z,16.90
2018-06-21T00:29:31.496Z,16.80
2018-06-21T00:32:04.644Z,16.80
2018-06-21T00:34:33.698Z,16.80
2018-06-21T00:37:02.538Z,16.80
2018-06-21T00:39:31.495Z,16.80
2018-06-21T00:42:00.478Z,16.90
2018-06-21T00:44:35.000Z,16.80
2018-06-21T00:47:12.188Z,16.80
2018-06-21T00:49:41.064Z,16.70
2018-06-21T00:52:15.571Z,16.70
2018-06-21T00:54:45.512Z,16.70
2018-06-21T00:57:14.312Z,16.70
2018-06-21T00:59:43.147Z,16.60
2018-06-21T01:02:13.144Z,16.50
2018-06-21T01:04:42.112Z,16.50
2018-06-21T01:07:10.891Z,16.40
2018-06-21T01:09:39.815Z,16.40
2018-06-21T01:12:15.888Z,16.40
2018-06-21T01:14:44.655Z,16.30
2018-06-21T01:17:17.972Z,16.30
2018-06-21T01:19:48.783Z,16.30
2018-06-21T01:22:18.584Z,16.30
2018-06-21T01:24:48.617Z,16.40
2018-06-21T01:27:23.868Z,16.30
2018-06-21T01:29:56.036Z,16.20
2018-06-21T01:32:25.843Z,16.00
2018-06-21T01:34:54.660Z,16.00
2018-06-21T01:37:25.431Z,16.10
2018-06-21T01:39:55.215Z,16.10
2018-06-21T01:42:33.659Z,16.10
2018-06-21T01:45:12.627Z,16.00
2018-06-21T01:47:45.931Z,15.90
2018-06-21T01:50:17.731Z,15.80
2018-06-21T01:52:47.508Z,15.70
2018-06-21T01:55:23.215Z,15.70
2018-06-21T01:57:55.487Z,15.60
2018-06-21T02:00:26.292Z,15.60
2018-06-21T02:02:57.076Z,15.60
2018-06-21T02:05:27.913Z,15.50
2018-06-21T02:07:56.669Z,15.50
2018-06-21T02:10:28.927Z,15.60
2018-06-21T02:13:00.804Z,15.60
2018-06-21T02:15:29.667Z,15.50
2018-06-21T02:17:59.452Z,15.50
2018-06-21T02:20:28.415Z,15.50
2018-06-21T02:22:57.443Z,15.50
2018-06-21T02:25:47.151Z,15.40
2018-06-21T02:28:21.623Z,15.40
2018-06-21T02:30:50.444Z,15.40
2018-06-21T02:33:31.476Z,15.40
2018-06-21T02:36:01.305Z,15.40
2018-06-21T02:38:30.123Z,15.30
2018-06-21T02:40:58.855Z,15.30
2018-06-21T02:43:28.692Z,15.30
2018-06-21T02:45:57.444Z,15.30
2018-06-21T02:48:28.172Z,15.30
2018-06-21T02:50:56.911Z,15.40
2018-06-21T02:53:29.579Z,15.40
2018-06-21T02:55:59.436Z,15.40
2018-06-21T02:58:37.868Z,15.40
2018-06-21T03:01:12.267Z,15.40
2018-06-21T03:03:41.119Z,15.40
2018-06-21T03:06:12.100Z,15.30
2018-06-21T03:08:43.027Z,15.40
2018-06-21T03:11:11.919Z,15.40
2018-06-21T03:13:40.880Z,15.40
2018-06-21T03:16:13.487Z,15.40
2018-06-21T03:18:42.475Z,15.40
2018-06-21T03:21:12.460Z,15.50
2018-06-21T03:23:41.291Z,15.50
2018-06-21T03:26:10.199Z,15.50
2018-06-21T03:28:42.655Z,15.50
2018-06-21T03:31:32.644Z,15.50
2018-06-21T03:34:03.491Z,15.60
2018-06-21T03:36:32.335Z,15.70
2018-06-21T03:39:01.064Z,15.70
2018-06-21T03:41:46.832Z,15.70
2018-06-21T03:44:16.866Z,15.60
2018-06-21T03:46:47.688Z,15.60
2018-06-21T03:49:16.551Z,15.60
2018-06-21T03:51:46.343Z,15.70
2018-06-21T03:54:16.187Z,15.70
2018-06-21T03:56:44.935Z,15.80
2018-06-21T03:59:13.703Z,15.80
2018-06-21T04:01:49.451Z,15.90
2018-06-21T04:04:19.311Z,16.00
2018-06-21T04:06:48.111Z,16.10
2018-06-21T04:09:18.963Z,16.20
2018-06-21T04:11:47.855Z,16.30
2018-06-21T04:14:16.716Z,16.40
2018-06-21T04:16:46.451Z,16.40
2018-06-21T04:19:17.256Z,16.50
2018-06-21T04:21:51.200Z,16.60
2018-06-21T04:24:20.086Z,16.70
2018-06-21T04:26:53.335Z,16.90
2018-06-21T04:29:23.156Z,17.20
2018-06-21T04:31:55.796Z,17.50
2018-06-21T04:34:26.603Z,17.80
2018-06-21T04:42:19.498Z,18.30
2018-06-21T04:44:48.327Z,18.50
2018-06-21T04:47:18.140Z,18.80
2018-06-21T04:49:46.931Z,19.10
2018-06-21T04:52:15.680Z,19.30
2018-06-21T04:54:50.311Z,19.50
2018-06-21T04:57:21.099Z,19.50
2018-06-21T04:59:49.826Z,19.60
2018-06-21T05:02:25.383Z,19.70
2018-06-21T05:04:55.231Z,19.70
2018-06-21T05:07:42.623Z,19.80
2018-06-21T05:10:14.347Z,19.90
2018-06-21T05:12:43.219Z,20.10
2018-06-21T05:15:15.375Z,20.30
2018-06-21T05:17:46.195Z,20.60
2018-06-21T05:20:26.607Z,20.90
2018-06-21T05:22:55.326Z,21.30
2018-06-21T05:25:30.004Z,21.60
2018-06-21T05:28:05.459Z,21.70
2018-06-21T05:30:38.323Z,21.60
2018-06-21T05:33:09.071Z,21.50
2018-06-21T05:35:39.827Z,21.50
2018-06-21T05:38:09.571Z,21.70
2018-06-21T05:40:46.495Z,22.10
2018-06-21T05:43:19.055Z,22.30
2018-06-21T05:45:47.822Z,22.40
2018-06-21T05:48:24.235Z,22.50
2018-06-21T05:50:53.074Z,22.80
2018-06-21T05:53:22.834Z,23.40
2018-06-21T05:55:52.599Z,23.60
2018-06-21T05:58:31.771Z,23.50
2018-06-21T06:01:03.535Z,23.60
2018-06-21T06:03:54.439Z,23.70
2018-06-21T06:06:31.387Z,24.00
2018-06-21T06:09:20.948Z,24.30
2018-06-21T06:11:51.810Z,24.30
2018-06-21T06:14:27.475Z,24.30
2018-06-21T06:16:57.290Z,24.10
2018-06-21T06:19:27.060Z,23.90
2018-06-21T06:21:56.815Z,23.70
2018-06-21T06:24:25.530Z,23.80
2018-06-21T06:26:55.251Z,23.90
2018-06-21T06:29:27.473Z,24.30
2018-06-21T06:31:57.276Z,24.80
2018-06-21T06:36:58.311Z,26.30
2018-06-21T06:39:28.143Z,26.60
2018-06-21T06:41:56.866Z,26.70
2018-06-21T06:44:37.035Z,26.60
2018-06-21T06:47:06.808Z,26.20
2018-06-21T06:49:36.554Z,25.90
2018-06-21T06:52:09.999Z,26.10
2018-06-21T06:54:39.786Z,26.50
2018-06-21T06:57:10.527Z,26.60
2018-06-21T06:59:52.154Z,26.70
2018-06-21T07:02:22.879Z,26.80
2018-06-21T07:04:51.739Z,26.90
2018-06-21T07:07:39.008Z,27.10
2018-06-21T07:10:09.799Z,27.30
2018-06-21T07:15:13.183Z,27.60
2018-06-21T07:17:45.366Z,27.60
2018-06-21T07:20:14.372Z,28.20
2018-06-21T07:22:43.235Z,28.70
2018-06-21T07:25:12.075Z,29.20
2018-06-21T07:27:40.959Z,29.70
2018-06-21T07:30:09.893Z,30.40
2018-06-21T07:32:50.755Z,30.80
2018-06-21T07:35:23.099Z,30.80
2018-06-21T07:37:56.894Z,30.50
2018-06-21T07:40:26.047Z,29.80
2018-06-21T07:42:54.791Z,29.20
2018-06-21T07:45:23.643Z,29.40
2018-06-21T07:47:53.363Z,29.60
2018-06-21T07:50:40.915Z,29.80
2018-06-21T07:53:11.738Z,30.00
2018-06-21T07:55:48.247Z,30.20
2018-06-21T07:58:17.219Z,30.50
2018-06-21T08:00:48.115Z,31.20
2018-06-21T08:03:16.871Z,31.10
2018-06-21T08:05:50.067Z,31.00
2018-06-21T08:08:18.790Z,30.60
2018-06-21T08:10:57.069Z,29.80
2018-06-21T08:13:25.851Z,29.10
2018-06-21T08:15:57.931Z,29.20
2018-06-21T08:18:26.695Z,29.70
2018-06-21T08:20:55.494Z,30.40
2018-06-21T08:23:25.306Z,30.80
2018-06-21T08:25:55.042Z,31.40
2018-06-21T08:28:26.998Z,31.60
2018-06-21T08:31:14.958Z,32.10
2018-06-21T08:33:44.879Z,31.80
2018-06-21T08:36:15.683Z,32.10
2018-06-21T08:38:44.516Z,32.80
2018-06-21T08:41:16.638Z,32.90
2018-06-21T08:43:51.183Z,33.30
2018-06-21T08:46:20.898Z,33.10
2018-06-21T08:48:49.743Z,32.80
2018-06-21T08:51:19.597Z,31.90
2018-06-21T08:53:48.438Z,31.30
2018-06-21T08:56:18.299Z,31.10
2018-06-21T08:58:48.239Z,31.10
2018-06-21T09:01:18.982Z,31.00
2018-06-21T09:03:54.632Z,31.30
2018-06-21T09:06:23.287Z,31.40
2018-06-21T09:08:53.018Z,32.80
2018-06-21T09:11:21.730Z,33.10
2018-06-21T09:13:51.427Z,32.10
2018-06-21T09:16:25.154Z,31.10
2018-06-21T09:19:00.547Z,30.80
2018-06-21T09:21:29.383Z,31.00
2018-06-21T09:23:58.154Z,29.90
2018-06-21T09:26:31.922Z,30.00
2018-06-21T09:29:01.647Z,30.50
2018-06-21T09:31:30.455Z,31.90
2018-06-21T09:33:59.174Z,30.80
2018-06-21T09:36:34.250Z,31.00
2018-06-21T09:39:14.726Z,32.10
2018-06-21T09:41:50.196Z,32.60
2018-06-21T09:44:24.406Z,33.30
2018-06-21T09:46:58.561Z,33.50
2018-06-21T09:49:40.075Z,34.00
2018-06-21T09:52:22.957Z,34.10
2018-06-21T09:54:52.655Z,35.00
2018-06-21T09:57:26.599Z,34.50
2018-06-21T09:59:58.535Z,33.10
2018-06-21T10:02:27.298Z,31.40
2018-06-21T10:04:59.215Z,30.40
2018-06-21T10:07:28.054Z,29.50
2018-06-21T10:09:57.798Z,29.90
2018-06-21T10:12:29.935Z,31.30
2018-06-21T10:14:58.651Z,31.10
2018-06-21T10:17:41.352Z,32.50
2018-06-21T10:20:17.610Z,33.40
2018-06-21T10:22:50.077Z,34.20
2018-06-21T10:25:19.802Z,33.10
2018-06-21T10:27:51.631Z,32.20
2018-06-21T10:30:23.811Z,31.10
2018-06-21T10:32:54.059Z,32.80
2018-06-21T10:35:22.931Z,33.70
2018-06-21T10:37:52.135Z,33.70
2018-06-21T10:40:32.803Z,32.90
2018-06-21T10:43:07.258Z,32.30
2018-06-21T10:45:41.070Z,32.50
2018-06-21T10:48:11.794Z,32.60
2018-06-21T10:50:49.882Z,31.20
2018-06-21T10:53:29.067Z,30.70
2018-06-21T10:55:57.866Z,31.00
2018-06-21T10:58:39.402Z,31.70
2018-06-21T11:01:10.179Z,30.90
2018-06-21T11:03:40.907Z,30.80
2018-06-21T11:06:09.714Z,31.20
2018-06-21T11:08:39.559Z,32.00
2018-06-21T11:11:08.278Z,33.10
2018-06-21T11:13:37.146Z,33.40
2018-06-21T11:16:20.258Z,33.50
2018-06-21T11:18:51.266Z,32.70
2018-06-21T11:21:21.034Z,32.00
2018-06-21T11:23:57.530Z,31.10
2018-06-21T11:26:38.238Z,30.00
2018-06-21T11:29:12.242Z,30.40
2018-06-21T11:31:43.976Z,30.60
2018-06-21T11:34:15.770Z,30.00
2018-06-21T11:36:44.618Z,29.70
2018-06-21T11:39:16.686Z,29.40
2018-06-21T11:41:57.312Z,30.40
2018-06-21T11:44:26.185Z,30.60
2018-06-21T11:46:58.334Z,30.10
2018-06-21T11:49:27.140Z,29.50
2018-06-21T11:51:59.874Z,29.10
2018-06-21T11:54:34.250Z,29.20
2018-06-21T11:57:07.818Z,29.00
2018-06-21T11:59:45.706Z,29.10
2018-06-21T12:02:17.482Z,30.00
2018-06-21T12:04:47.298Z,29.60
2018-06-21T12:07:16.058Z,29.60
2018-06-21T12:09:46.896Z,30.00
2018-06-21T12:12:26.763Z,30.80
2018-06-21T12:14:56.906Z,31.30
2018-06-21T12:17:25.658Z,32.50
2018-06-21T12:19:57.238Z,33.60
2018-06-21T12:22:26.086Z,31.90
2018-06-21T12:24:56.158Z,30.40
2018-06-21T12:27:26.890Z,29.80
2018-06-21T12:32:27.898Z,29.50
2018-06-21T12:34:58.639Z,28.60
2018-06-21T12:37:29.422Z,27.60
2018-06-21T12:39:58.178Z,28.30
2018-06-21T12:45:08.922Z,28.20
2018-06-21T12:47:37.690Z,29.20
2018-06-21T12:50:09.582Z,30.20
2018-06-21T12:52:45.834Z,31.50
2018-06-21T12:55:18.243Z,32.30
2018-06-21T12:57:50.110Z,32.80
2018-06-21T13:03:05.342Z,33.70
2018-06-21T13:05:34.055Z,33.10
2018-06-21T13:08:10.510Z,30.60
2018-06-21T13:10:53.792Z,29.90
2018-06-21T13:13:25.122Z,29.60
2018-06-21T13:15:53.907Z,29.00
2018-06-21T13:18:42.884Z,28.90
2018-06-21T13:21:11.774Z,28.70
2018-06-21T13:23:44.314Z,29.00
2018-06-21T13:26:13.086Z,28.70
2018-06-21T13:28:42.922Z,29.00
2018-06-21T13:31:12.752Z,29.50
2018-06-21T13:33:43.618Z,29.40
2018-06-21T13:36:17.348Z,29.00
2018-06-21T13:38:51.249Z,29.20
2018-06-21T13:41:25.649Z,29.10
2018-06-21T13:43:54.525Z,31.20
2018-06-21T13:46:31.273Z,31.70
2018-06-21T13:49:03.422Z,31.50
2018-06-21T13:51:41.973Z,30.50
2018-06-21T13:54:16.749Z,29.00
2018-06-21T13:56:51.533Z,28.60
2018-06-21T13:59:22.274Z,28.30
2018-06-21T14:01:54.869Z,28.60
2018-06-21T14:04:30.893Z,28.90
2018-06-21T14:07:00.637Z,28.20
2018-06-21T14:09:33.109Z,27.90
2018-06-21T14:12:01.894Z,27.70
2018-06-21T14:14:38.152Z,28.50
2018-06-21T14:17:07.009Z,28.50
2018-06-21T14:19:39.414Z,28.10
2018-06-21T14:22:13.713Z,27.50
2018-06-21T14:24:44.517Z,26.40
2018-06-21T14:27:13.325Z,26.30
2018-06-21T14:29:58.567Z,27.60
2018-06-21T14:32:29.253Z,28.30
2018-06-21T14:34:59.005Z,29.20
2018-06-21T14:37:34.509Z,30.20
2018-06-21T14:40:08.374Z,31.20
2018-06-21T14:42:41.146Z,31.50
2018-06-21T14:45:09.921Z,29.40
2018-06-21T14:47:58.374Z,27.10
2018-06-21T14:50:55.006Z,26.50
2018-06-21T14:53:30.534Z,25.90
2018-06-21T14:55:59.238Z,26.00
2018-06-21T14:58:31.118Z,25.30
2018-06-21T15:01:11.038Z,25.10
2018-06-21T15:03:46.912Z,24.50
2018-06-21T15:06:21.286Z,23.80
2018-06-21T15:08:58.543Z,23.50
2018-06-21T15:11:28.297Z,23.70
2018-06-21T15:13:57.105Z,24.00
2018-06-21T15:16:25.857Z,25.10
2018-06-21T15:18:58.626Z,25.50
2018-06-21T15:21:37.249Z,25.10
2018-06-21T15:24:07.005Z,24.20
2018-06-21T15:26:44.133Z,24.30
2018-06-21T15:29:13.498Z,24.60
2018-06-21T15:31:42.231Z,25.20
2018-06-21T15:34:11.054Z,25.80
2018-06-21T15:36:41.750Z,25.50
2018-06-21T15:39:27.914Z,25.80
2018-06-21T15:41:59.846Z,25.60
2018-06-21T15:44:41.009Z,25.00
2018-06-21T15:47:12.865Z,24.50
2018-06-21T15:49:43.605Z,24.10
2018-06-21T15:52:14.313Z,24.10
2018-06-21T15:54:55.340Z,24.30
2018-06-21T16:00:18.737Z,22.40
2018-06-21T16:02:53.669Z,22.20
2018-06-21T16:08:16.125Z,22.10
2018-06-21T16:10:52.597Z,22.00
2018-06-21T16:13:26.770Z,22.10
2018-06-21T16:15:55.639Z,21.90
2018-06-21T16:18:41.320Z,21.70
2018-06-21T16:21:10.064Z,21.60
2018-06-21T16:23:48.687Z,21.30
2018-06-21T16:26:23.773Z,21.10
2018-06-21T16:28:53.041Z,21.20
2018-06-21T16:33:59.984Z,21.60
2018-06-21T16:36:39.680Z,21.30
2018-06-21T16:39:09.652Z,21.10
2018-06-21T16:41:38.452Z,20.90
2018-06-21T16:44:07.229Z,20.80
2018-06-21T16:46:36.949Z,20.80
2018-06-21T16:49:05.779Z,20.70
2018-06-21T16:51:40.029Z,20.60
2018-06-21T16:54:10.773Z,20.60
2018-06-21T16:56:44.388Z,20.40
2018-06-21T16:59:18.399Z,19.80
2018-06-21T17:01:48.222Z,19.20
2018-06-21T17:04:19.033Z,18.90
2018-06-21T17:06:47.984Z,18.90
2018-06-21T17:09:20.108Z,19.00
2018-06-21T17:11:55.649Z,19.20
2018-06-21T17:14:24.373Z,19.50
2018-06-21T17:16:53.467Z,19.70
2018-06-21T17:19:25.707Z,20.00
2018-06-21T17:21:54.589Z,20.50
2018-06-21T17:24:26.668Z,21.00
2018-06-21T17:27:00.444Z,21.10
2018-06-21T17:29:29.260Z,21.00
2018-06-21T17:32:02.213Z,20.90
2018-06-21T17:34:32.960Z,20.70
2018-06-21T17:37:05.271Z,20.80
2018-06-21T17:39:47.000Z,21.20
2018-06-21T17:42:20.408Z,21.60
2018-06-21T17:44:49.825Z,22.30
2018-06-21T17:47:26.356Z,22.50
2018-06-21T17:49:59.781Z,22.50
2018-06-21T17:52:41.941Z,22.30
2018-06-21T17:55:29.040Z,22.00
2018-06-21T18:00:47.037Z,21.80
2018-06-21T18:03:15.829Z,21.90
2018-06-21T18:05:47.804Z,22.00
2018-06-21T18:08:20.813Z,22.00
2018-06-21T18:10:53.873Z,21.70
2018-06-21T18:13:22.681Z,21.10
2018-06-21T18:16:03.604Z,20.70
2018-06-21T18:18:39.957Z,20.30
2018-06-21T18:21:08.820Z,20.10
2018-06-21T18:23:41.420Z,19.90
2018-06-21T18:26:10.256Z,19.70
2018-06-21T18:28:43.310Z,19.50
2018-06-21T18:31:18.120Z,19.30
2018-06-21T18:33:59.004Z,19.10
2018-06-21T18:36:27.980Z,19.00
2018-06-21T18:38:57.193Z,18.90
2018-06-21T18:41:26.025Z,18.80
2018-06-21T18:44:00.660Z,18.60
2018-06-21T18:46:32.604Z,18.60
2018-06-21T18:49:01.938Z,18.50
2018-06-21T18:51:30.698Z,18.40
2018-06-21T18:54:00.596Z,18.30
2018-06-21T18:56:42.017Z,18.20
2018-06-21T18:59:14.272Z,18.10
2018-06-21T19:01:48.060Z,18.00
2018-06-21T19:04:17.988Z,17.90
2018-06-21T19:06:56.436Z,17.80
2018-06-21T19:12:01.752Z,17.60
2018-06-21T19:14:40.626Z,17.60
2018-06-21T19:20:08.697Z,17.50
2018-06-21T19:25:12.091Z,17.40
2018-06-21T19:27:47.874Z,17.40
2018-06-21T19:30:21.625Z,17.40
2018-06-21T19:32:55.428Z,17.30
2018-06-21T19:35:38.220Z,17.30
2018-06-21T19:38:07.072Z,17.30
2018-06-21T19:40:43.544Z,17.20
2018-06-21T19:45:44.060Z,17.10
2018-06-21T19:48:12.801Z,17.20
2018-06-21T19:50:43.596Z,17.10
2018-06-21T19:53:12.384Z,17.10
2018-06-21T19:55:42.165Z,17.10
2018-06-21T19:58:18.236Z,17.10
2018-06-21T20:00:54.136Z,17.00
2018-06-21T20:03:23.848Z,17.00
2018-06-21T20:05:58.081Z,17.00
2018-06-21T20:08:36.788Z,17.00
2018-06-21T20:11:15.724Z,17.00
2018-06-21T20:13:46.360Z,17.00
2018-06-21T20:16:15.491Z,17.00
2018-06-21T20:18:47.318Z,16.90
2018-06-21T20:21:22.452Z,16.80
2018-06-21T20:23:54.404Z,16.80
2018-06-21T20:26:26.336Z,16.80
2018-06-21T20:28:56.064Z,16.70
2018-06-21T20:31:25.872Z,16.70
2018-06-21T20:33:57.720Z,16.60
2018-06-21T20:36:29.692Z,16.60
2018-06-21T20:38:59.524Z,16.50
2018-06-21T20:41:29.317Z,16.50
2018-06-21T20:46:32.144Z,16.40
2018-06-21T20:49:01.861Z,16.30
2018-06-21T20:51:38.544Z,16.20
2018-06-21T20:54:12.796Z,16.10
2018-06-21T20:56:43.059Z,16.00
2018-06-21T21:01:40.320Z,15.90
2018-06-21T21:04:10.060Z,15.80
2018-06-21T21:09:10.274Z,15.60
2018-06-21T21:11:45.276Z,15.50
2018-06-21T21:16:44.400Z,15.30
2018-06-21T21:19:13.232Z,15.30
2018-06-21T21:21:53.396Z,15.20
2018-06-21T21:24:25.920Z,15.20
2018-06-21T21:27:00.031Z,15.10
2018-06-21T21:29:28.764Z,15.10
2018-06-21T21:31:58.499Z,15.00
2018-06-21T21:34:30.347Z,14.90
2018-06-21T21:37:01.056Z,14.80
2018-06-21T21:39:40.906Z,14.60
2018-06-21T21:42:11.600Z,14.50
2018-06-21T21:44:40.524Z,14.40
2018-06-21T21:47:09.268Z,14.20
2018-06-21T21:49:43.149Z,14.00
2018-06-21T21:52:17.312Z,13.90
2018-06-21T21:54:50.395Z,13.80
2018-06-21T21:57:20.324Z,13.70
2018-06-21T21:59:59.851Z,13.60
2018-06-21T22:02:35.904Z,13.60
2018-06-21T22:05:06.357Z,13.50
2018-06-21T22:07:35.080Z,13.40
2018-06-21T22:10:10.552Z,13.30
2018-06-21T22:12:40.320Z,13.20
2018-06-21T22:15:14.424Z,13.20
2018-06-21T22:18:00.376Z,13.20
2018-06-21T22:20:34.272Z,13.20
2018-06-21T22:23:03.016Z,13.10
2018-06-21T22:25:35.132Z,13.10
2018-06-21T22:28:16.327Z,13.00
2018-06-21T22:30:47.104Z,13.00
2018-06-21T22:33:16.980Z,12.90
2018-06-21T22:36:01.872Z,12.80
2018-06-21T22:38:38.168Z,12.80
2018-06-21T22:43:37.315Z,12.60
2018-06-21T22:46:06.736Z,12.50
2018-06-21T22:48:38.947Z,12.40
2018-06-21T22:54:05.197Z,12.20
2018-06-21T22:56:37.383Z,12.00
2018-06-21T22:59:06.275Z,11.90
2018-06-21T23:01:35.117Z,11.80
2018-06-21T23:04:15.528Z,11.80
2018-06-21T23:06:44.364Z,11.70
2018-06-21T23:09:18.200Z,11.60
2018-06-21T23:11:54.684Z,11.40
2018-06-21T23:19:37.051Z,10.90
2018-06-21T23:22:09.544Z,10.80
2018-06-21T23:24:40.399Z,10.80
2018-06-21T23:27:11.152Z,10.70
2018-06-21T23:29:51.600Z,10.60
2018-06-21T23:32:20.336Z,10.40
2018-06-21T23:34:50.075Z,10.30
2018-06-21T23:37:18.814Z,10.20
2018-06-21T23:40:00.833Z,10.10
2018-06-21T23:42:37.400Z,9.90
2018-06-21T23:45:13.919Z,9.80
2018-06-21T23:47:42.715Z,9.80
2018-06-21T23:53:01.576Z,9.70
2018-06-21T23:55:32.396Z,9.60
2018-06-21T23:58:03.159Z,9.40
